San Joaquin, CA (93660)

3:20 AM PDT on August 02, 2014 (GMT -0700)
GFWS112 (KCAKERMA3) Elev 197 ft | 36.65 °N, 120.09 °W | Change Station

Current weather conditions updated 6 minutes ago

Clear
Clear
73.6 °F
Feels Like 77 °F
N
0.0
Wind Variable Wind from WNW
Gusts 4.0 mph

Today is forecast to be nearly the same temperature as yesterday.

Today
High -- | Low -- °F
--% Chance of Precip.
Yesterday
High -- | Low -- °F
Precip. -- in
6:07 AM 8:05 PM
Waxing Crescent, 34% visible
Pressure 29.79 in
Visibility 10.0 miles
Clouds Clear
Heat Index 77 °F
Dew Point 54 °F
Humidity 50%
Rainfall 0.00 in
Snow Depth Not available.
UV 0 out of 12
Pollen 6.70 out of 12
Air Quality Not available.
Flu Activity Not available.
METAR KNLC 020956Z AUTO 31010KT 10SM CLR 25/07 A2979 RMK AO2 SLP086 T02500072 $

More Conditions Fewer Conditions

Pressure 29.79 in
Visibility 10.0 miles
Clouds Clear
Heat Index 77 °F
Dew Point 54 °F
Humidity 50%
Rainfall 0.00 in
Snow Depth Not available.
UV 0 out of 12
Pollen 6.70 out of 12
Air Quality Not available.
Flu Activity Not available.
METAR KNLC 020956Z AUTO 31010KT 10SM CLR 25/07 A2979 RMK AO2 SLP086 T02500072 $

More Conditions Fewer Conditions

10-Day Weather Forecast

Almanac

Astronomy

Aug. 02, 2014 Rise Set
Actual Time 6:07 AM PDT 8:05 PM PDT
Civil Twilight 5:39 AM PDT 8:34 PM PDT
Nautical Twilight 5:04 AM PDT 9:08 PM PDT
Astronomical Twilight 4:27 AM PDT 9:45 PM PDT
Moon 12:22 PM PDT 11:39 PM PDT
Length of Visible Light 14h 54m
Length of Day
13h 58m
Tomorrow will be 1m 46s shorter.
Waxing Crescent, 34% of the Moon is Illuminated
Today
Waxing Crescent
Aug 3
First Quarter
Aug 10
Full
Aug 17
Last Quarter
Aug 25
New

Today's Extremes

State Highs State Lows

Community

WunderPhotos

Upload Photos

1,739,858 photos uploaded!

Nearby

Snow Depth

Station Depth Elevation
Leavitt Lake 0 in 9400 ft
Leavitt Meadows 1 in 7200 ft
Monitor Pass 0 in 8350 ft
Echo Peak 0 in 7800 ft
Fallen Leaf 0 in 6300 ft

Earthquake Activity

City Distance Mag. Time & Date
No recent earthquake activity has been reported nearby.
Minimum magnitude displayed is 2.5.

Coastal Water Temperatures

Place Temperature
No Stations Reporting

Nearby Weather Stations

Station Location Temp. Heat Index Dew Point Humidity Wind Precip. Elev Updated Type
GFWS112, Kerman, CA 73.6 °F 77 °F 54 °F 50% WNW  at  0.0 mph 0.00 in / hr 197 ft 3:13 AM PDT Normal
GFWS123, Kerman, CA 73.5 °F 77 °F 54 °F 50% WNW  at  7.0 mph 0.00 in / hr 220 ft 3:17 AM PDT Normal
GFWS45, Raisin City, CA 73.9 °F 77 °F 55 °F 51% WNW  at  0.0 mph 0.00 in / hr 223 ft 3:11 AM PDT Normal
MAP MENDOTA (P304) CA , Mendota, CA 78 °F 78 °F 47 °F 34% NW  at  5 mph 0.00 in / hr 164 ft 2:00 AM PDT MADIS
GFWS71, Fresno, CA 73.9 °F 77 °F 54 °F 50% WNW  at  1.0 mph 0.00 in / hr 249 ft 3:15 AM PDT Normal
MesoWest HERNDN , Biola, CA 73 °F 71 °F - - North  at  - 0.00 in / hr 289 ft 1:45 AM PDT MADIS

Show More Stations Show Fewer Stations